Time;durP1;ratioP1;P1;durP2;ratioP2;P2;SDS_P1;SDS_P2;PMS_P1;PMS_P2;Temp;Humidity;BMP_temperature;BMP_pressure;BME280_temperature;BME280_humidity;BME280_pressure;Samples;Min_cycle;Max_cycle;Signal;HPM_P1;HPM_P2
2023/06/06 00:00:46;;;;;;;9.50;8.80;;;14.30;99.90;;;15.03;100.00;97926.03;5197340;28;20244;-66
2023/06/06 00:03:20;;;;;;;10.75;9.85;;;14.20;99.90;;;15.03;100.00;97914.03;5191706;28;20226;-67
2023/06/06 00:05:54;;;;;;;11.02;10.02;;;14.20;99.90;;;15.03;100.00;97915.75;5180777;28;20225;-66
2023/06/06 00:08:28;;;;;;;10.35;9.45;;;14.20;99.90;;;14.98;100.00;97915.53;5182441;28;20261;-67
2023/06/06 00:11:02;;;;;;;10.45;9.65;;;14.20;99.90;;;14.95;100.00;97911.97;5196965;28;20251;-66
2023/06/06 00:13:35;;;;;;;10.32;9.43;;;14.10;99.90;;;14.99;100.00;97914.72;5210857;28;20232;-66
2023/06/06 00:16:09;;;;;;;10.77;9.88;;;14.10;99.90;;;14.98;100.00;97910.38;5194170;28;20260;-66
2023/06/06 00:18:42;;;;;;;10.35;9.45;;;14.20;99.90;;;15.01;100.00;97915.66;5202553;28;20222;-67
2023/06/06 00:21:16;;;;;;;10.05;9.13;;;14.20;99.90;;;14.98;100.00;97912.09;5202661;28;20532;-67
2023/06/06 00:23:52;;;;;;;10.40;9.52;;;14.20;99.90;;;14.95;100.00;97914.53;5200002;28;20299;-66
2023/06/06 00:26:26;;;;;;;9.90;9.07;;;14.00;99.90;;;14.92;100.00;97917.88;5201761;28;20256;-66
2023/06/06 00:28:59;;;;;;;9.52;8.75;;;14.00;99.90;;;14.86;100.00;97915.91;5202592;28;20230;-66
2023/06/06 00:31:32;;;;;;;10.07;9.07;;;14.00;99.90;;;14.73;100.00;97925.63;5202012;28;20309;-66
2023/06/06 00:34:05;;;;;;;10.63;9.73;;;13.80;99.90;;;14.69;100.00;97924.63;5201718;28;20316;-66
2023/06/06 00:36:38;;;;;;;11.02;9.98;;;13.80;99.90;;;14.63;100.00;97925.25;5204854;28;20338;-65
2023/06/06 00:39:13;;;;;;;9.95;9.15;;;13.80;99.90;;;14.50;100.00;97928.06;5199998;28;20222;-66
2023/06/06 00:41:47;;;;;;;10.25;9.45;;;13.70;99.90;;;14.37;100.00;97926.69;5201668;28;20244;-66
2023/06/06 00:44:22;;;;;;;10.85;9.95;;;13.50;99.90;;;14.36;100.00;97924.03;5201178;28;20233;-66
2023/06/06 00:46:55;;;;;;;11.77;10.57;;;13.50;99.90;;;14.33;100.00;97922.22;5197934;28;20291;-66
2023/06/06 00:49:28;;;;;;;9.90;9.10;;;13.50;99.90;;;14.37;100.00;97926.69;5207407;28;20307;-66
2023/06/06 00:52:02;;;;;;;10.32;9.38;;;13.50;99.90;;;14.41;100.00;97928.56;5197534;28;20253;-66
2023/06/06 00:54:37;;;;;;;9.75;8.77;;;13.60;99.90;;;14.46;100.00;97925.34;5204298;28;20253;-65
2023/06/06 00:57:10;;;;;;;10.60;9.73;;;13.60;99.90;;;14.38;100.00;97920.72;5204584;28;20249;-65
2023/06/06 00:59:44;;;;;;;9.77;8.98;;;13.50;99.90;;;14.38;100.00;97923.28;5200036;28;20226;-66
2023/06/06 01:02:18;;;;;;;9.50;8.70;;;13.50;99.90;;;14.34;100.00;97924.00;5200353;28;20753;-66
2023/06/06 01:04:52;;;;;;;9.93;9.13;;;13.50;99.90;;;14.32;100.00;97924.72;5200670;28;20287;-66
2023/06/06 01:07:27;;;;;;;9.70;8.80;;;13.50;99.90;;;14.30;100.00;97934.94;5201167;28;20225;-66
2023/06/06 01:10:02;;;;;;;9.13;8.43;;;13.40;99.90;;;14.34;100.00;97926.56;5202416;28;20221;-65
2023/06/06 01:12:44;;;;;;;9.50;8.65;;;13.40;99.90;;;14.31;100.00;97926.44;5200979;28;20643;-66
2023/06/06 01:15:23;;;;;;;9.68;8.73;;;13.40;99.90;;;14.30;100.00;97926.34;5198925;28;20248;-67
2023/06/06 01:17:57;;;;;;;10.65;9.85;;;13.40;99.90;;;14.33;100.00;97921.34;5200983;28;20781;-65
2023/06/06 01:20:31;;;;;;;9.57;8.75;;;13.40;99.90;;;14.23;100.00;97924.34;5197092;28;20280;-65
2023/06/06 01:23:06;;;;;;;10.73;9.82;;;13.30;99.90;;;14.09;100.00;97927.16;5207353;28;20244;-65
2023/06/06 01:25:47;;;;;;;10.88;9.88;;;13.20;99.90;;;14.10;100.00;97930.63;5204359;28;20233;-66
2023/06/06 01:28:21;;;;;;;10.43;9.60;;;13.20;99.90;;;14.05;100.00;97925.28;5202075;28;20225;-66
2023/06/06 01:30:54;;;;;;;15.82;10.55;;;13.10;99.90;;;14.04;100.00;97925.22;5200100;28;20233;-66
2023/06/06 01:33:37;;;;;;;9.88;9.07;;;13.10;99.90;;;13.98;100.00;97924.13;5201082;28;20229;-65
2023/06/06 01:36:23;;;;;;;11.02;9.93;;;13.10;99.90;;;13.97;100.00;97919.78;5198066;28;20684;-66
2023/06/06 01:39:07;;;;;;;10.93;9.90;;;13.10;99.90;;;13.98;100.00;97920.66;5198446;28;20265;-66
2023/06/06 01:41:41;;;;;;;10.88;9.88;;;13.10;99.90;;;13.87;100.00;97927.91;5204086;28;20371;-67
2023/06/06 01:44:16;;;;;;;10.55;9.63;;;13.00;99.90;;;13.80;100.00;97925.00;5201472;28;20221;-65
2023/06/06 01:46:49;;;;;;;10.88;10.02;;;13.00;99.90;;;13.58;100.00;97926.56;5197043;28;20693;-65
2023/06/06 01:49:25;;;;;;;10.73;9.82;;;12.80;99.90;;;13.51;100.00;97927.97;5208752;28;20242;-65
2023/06/06 01:51:58;;;;;;;9.73;8.82;;;12.70;99.90;;;13.56;100.00;97919.59;5196807;28;20225;-65
2023/06/06 01:54:34;;;;;;;10.52;9.48;;;12.70;99.90;;;13.59;100.00;97927.44;5195295;28;20256;-64
2023/06/06 01:57:08;;;;;;;9.35;8.63;;;12.80;99.90;;;13.61;100.00;97928.41;5198891;28;20226;-65
2023/06/06 01:59:41;;;;;;;10.25;9.35;;;12.70;99.90;;;13.63;100.00;97926.78;5200169;28;20230;-66
2023/06/06 02:02:17;;;;;;;9.68;8.77;;;12.80;99.90;;;13.57;100.00;97934.22;5196166;28;20233;-64
2023/06/06 02:04:50;;;;;;;9.93;9.05;;;12.70;99.90;;;13.49;100.00;97933.84;5199880;28;20225;-66
2023/06/06 02:07:24;;;;;;;9.23;8.52;;;12.50;99.90;;;13.48;100.00;97937.25;5201123;28;20320;-64
2023/06/06 02:09:59;;;;;;;9.38;8.57;;;12.60;99.90;;;13.46;100.00;97937.16;5199610;28;20304;-65
2023/06/06 02:12:33;;;;;;;8.68;7.97;;;12.60;99.90;;;13.39;100.00;97937.69;5201497;28;20221;-65
2023/06/06 02:15:09;;;;;;;9.25;8.55;;;12.50;99.90;;;13.40;100.00;97939.44;5197388;28;20323;-65
2023/06/06 02:17:42;;;;;;;8.77;8.15;;;12.50;99.90;;;13.37;100.00;97939.28;5200905;28;20233;-66
2023/06/06 02:20:15;;;;;;;8.23;7.57;;;12.50;99.90;;;13.37;100.00;97939.28;5201942;28;20320;-64
2023/06/06 02:22:48;;;;;;;9.35;8.55;;;12.50;99.90;;;13.34;100.00;97938.28;5199649;28;20229;-65
2023/06/06 02:25:23;;;;;;;9.07;8.38;;;12.40;99.90;;;13.29;100.00;97936.34;5202326;28;20786;-64
2023/06/06 02:27:57;;;;;;;9.93;9.13;;;12.40;99.90;;;13.28;100.00;97944.00;5199539;28;20227;-66
2023/06/06 02:30:30;;;;;;;8.98;8.27;;;12.40;99.90;;;13.23;100.00;97940.28;5200333;28;20229;-64
2023/06/06 02:33:04;;;;;;;9.10;8.38;;;12.30;99.90;;;13.14;100.00;97939.84;5201649;28;20245;-65
2023/06/06 02:35:37;;;;;;;9.43;8.73;;;12.30;99.90;;;13.00;100.00;97937.50;5202591;28;20226;-65
2023/06/06 02:38:10;;;;;;;9.45;8.55;;;12.10;99.90;;;13.00;100.00;97942.63;5198372;28;20721;-64
2023/06/06 02:40:45;;;;;;;9.98;8.68;;;12.10;99.90;;;12.91;100.00;97943.88;5204974;28;20303;-65
2023/06/06 02:43:18;;;;;;;9.18;8.38;;;12.00;99.90;;;12.80;100.00;97945.91;5199368;28;20287;-64
2023/06/06 02:45:52;;;;;;;29.45;10.00;;;12.00;99.90;;;12.72;100.00;97948.06;5201458;28;20275;-65
2023/06/06 02:48:25;;;;;;;9.65;8.75;;;11.90;99.90;;;12.61;100.00;97951.78;5201518;28;20234;-64
2023/06/06 02:50:59;;;;;;;10.45;9.55;;;11.80;99.90;;;12.69;100.00;97955.63;5203143;28;20745;-65
2023/06/06 02:53:32;;;;;;;9.63;8.82;;;11.90;99.90;;;12.76;100.00;97957.69;5201754;28;20757;-65
2023/06/06 02:56:07;;;;;;;10.20;9.23;;;11.90;99.90;;;12.78;100.00;97956.06;5198352;28;20259;-64
2023/06/06 02:58:40;;;;;;;9.77;8.98;;;12.00;99.90;;;12.78;100.00;97965.44;5198287;28;20288;-64
2023/06/06 03:01:14;;;;;;;9.75;8.85;;;12.00;99.90;;;12.80;100.00;97959.59;5202663;28;20822;-64
2023/06/06 03:03:47;;;;;;;10.70;9.80;;;12.00;99.90;;;12.81;100.00;97960.47;5203690;28;20217;-65
2023/06/06 03:06:21;;;;;;;8.95;8.15;;;12.00;99.90;;;12.82;100.00;97964.81;5198617;28;20300;-66
2023/06/06 03:08:57;;;;;;;10.43;9.35;;;11.90;99.90;;;12.82;100.00;97962.25;5198773;28;20236;-65
2023/06/06 03:11:32;;;;;;;10.50;9.60;;;12.00;99.90;;;12.80;100.00;97953.59;5203517;28;20785;-65
2023/06/06 03:14:05;;;;;;;9.77;8.98;;;11.90;99.90;;;12.74;100.00;97959.28;5196285;28;20300;-64
2023/06/06 03:16:39;;;;;;;10.10;9.27;;;11.90;99.90;;;12.76;100.00;97964.47;5199756;28;20240;-66
2023/06/06 03:19:13;;;;;;;9.63;8.80;;;11.90;99.90;;;12.71;100.00;97963.41;5196798;28;20259;-65
2023/06/06 03:21:46;;;;;;;9.25;8.45;;;11.90;99.90;;;12.60;100.00;97960.28;5197788;28;20312;-64
2023/06/06 03:24:19;;;;;;;8.85;8.02;;;11.70;99.90;;;12.35;100.00;97963.28;5197699;28;20256;-66
2023/06/06 03:26:54;;;;;;;8.50;7.90;;;11.50;99.90;;;12.36;100.00;97970.16;5199641;28;20686;-65
2023/06/06 03:29:27;;;;;;;8.93;8.23;;;11.50;99.90;;;12.38;100.00;97973.69;5201102;28;20280;-65
2023/06/06 03:32:01;;;;;;;8.43;7.93;;;11.60;99.90;;;12.45;100.00;97969.75;5200420;28;20304;-65
2023/06/06 03:34:35;;;;;;;9.43;8.63;;;11.60;99.90;;;12.39;100.00;97975.47;5178858;28;20620;-64
2023/06/06 03:37:08;;;;;;;9.52;8.70;;;11.60;99.90;;;12.44;100.00;97978.25;5182879;28;20698;-65
2023/06/06 03:39:42;;;;;;;8.85;8.18;;;11.60;99.90;;;12.50;100.00;97983.69;5186594;28;20230;-65
2023/06/06 03:42:16;;;;;;;9.77;8.88;;;11.70;99.90;;;12.54;100.00;97980.50;5184017;28;20694;-66
2023/06/06 03:44:49;;;;;;;9.25;8.23;;;11.70;99.90;;;12.54;100.00;97980.50;5184373;28;20241;-66
2023/06/06 03:47:22;;;;;;;8.77;7.97;;;11.70;99.90;;;12.57;100.00;97983.22;5191400;28;20213;-65
2023/06/06 03:49:56;;;;;;;9.20;8.50;;;11.70;99.90;;;12.59;100.00;97977.34;5180819;28;20698;-65
2023/06/06 03:52:29;;;;;;;9.20;8.50;;;11.70;99.90;;;12.59;100.00;97979.94;5181010;28;20238;-66
2023/06/06 03:55:02;;;;;;;9.88;9.02;;;11.70;99.90;;;12.61;100.00;97982.56;5188720;28;20276;-65
2023/06/06 03:57:37;;;;;;;10.15;9.20;;;11.80;99.90;;;12.59;100.00;97973.88;5193502;28;20257;-64
2023/06/06 04:00:13;;;;;;;10.00;9.10;;;11.80;99.90;;;12.70;100.00;97984.69;5184693;28;20218;-66
2023/06/06 04:02:48;;;;;;;9.07;8.38;;;11.90;99.90;;;12.77;100.00;97984.22;5189175;28;20283;-66
2023/06/06 04:05:23;;;;;;;9.43;8.70;;;11.90;99.90;;;12.55;100.00;97985.69;5199739;28;20233;-66
2023/06/06 04:07:56;;;;;;;9.50;8.70;;;11.80;99.90;;;12.55;100.00;97985.69;5203368;28;20601;-65
2023/06/06 04:10:29;;;;;;;9.60;8.88;;;11.70;99.90;;;12.53;100.00;97995.00;5197407;28;20311;-66
2023/06/06 04:13:03;;;;;;;9.70;8.85;;;11.70;99.90;;;12.42;100.00;97996.13;5189554;28;20697;-66
2023/06/06 04:15:37;;;;;;;9.98;8.77;;;11.60;99.90;;;12.38;100.00;97989.06;5201126;28;20247;-65
2023/06/06 04:18:10;;;;;;;10.27;9.35;;;11.60;99.90;;;12.50;100.00;97991.38;5199778;28;20275;-65
2023/06/06 04:20:44;;;;;;;9.43;8.60;;;11.70;99.90;;;12.57;100.00;97991.78;5200416;28;20222;-65
2023/06/06 04:23:17;;;;;;;9.32;8.63;;;11.80;99.90;;;12.67;100.00;97995.69;5199523;28;20222;-66
2023/06/06 04:25:50;;;;;;;8.73;8.02;;;11.80;99.90;;;12.74;100.00;97999.47;5201936;28;20303;-66
2023/06/06 04:28:25;;;;;;;10.05;9.15;;;11.80;99.90;;;12.74;100.00;97996.91;5197607;28;20234;-65
2023/06/06 04:30:59;;;;;;;9.18;8.38;;;11.70;99.90;;;12.68;100.00;97997.47;5201834;28;20220;-66
2023/06/06 04:33:34;;;;;;;9.13;8.43;;;11.70;99.90;;;12.71;100.00;97996.75;5199842;28;20510;-67
2023/06/06 04:36:08;;;;;;;9.35;8.60;;;11.70;99.90;;;12.69;100.00;97995.78;5203333;28;20230;-65
2023/06/06 04:38:41;;;;;;;8.73;8.00;;;11.70;99.90;;;12.88;100.00;98001.03;5196154;28;20261;-65
2023/06/06 04:41:14;;;;;;;8.52;7.82;;;11.90;99.90;;;12.96;100.00;98002.31;5203783;28;20276;-66
2023/06/06 04:44:10;;;;;;;8.15;7.57;;;12.00;99.90;;;13.20;100.00;98004.31;5202790;28;20255;-65
2023/06/06 04:46:45;;;;;;;9.27;8.48;;;12.20;99.90;;;13.47;100.00;98000.53;5206390;28;20256;-66
2023/06/06 04:49:20;;;;;;;8.60;7.90;;;12.50;99.90;;;13.81;100.00;98003.81;5206605;28;20221;-64
2023/06/06 04:51:56;;;;;;;8.02;7.40;;;12.70;99.90;;;14.09;100.00;97991.44;5201444;28;20298;-66
2023/06/06 04:54:30;;;;;;;9.20;7.50;;;12.90;99.90;;;14.37;100.00;97997.81;5203278;28;20282;-66
2023/06/06 04:57:05;;;;;;;7.25;6.65;;;13.30;99.90;;;14.71;100.00;97994.16;5201368;28;20244;-66
2023/06/06 04:59:40;;;;;;;7.68;6.97;;;13.50;99.90;;;15.07;100.00;97989.69;5208558;28;20248;-66
2023/06/06 05:02:13;;;;;;;7.22;6.63;;;13.70;99.90;;;15.46;100.00;98002.44;5199225;28;20751;-66
2023/06/06 05:04:46;;;;;;;7.43;6.93;;;14.00;99.90;;;15.88;100.00;97999.81;5206307;28;20253;-65
2023/06/06 05:07:23;;;;;;;7.82;7.13;;;14.40;99.90;;;16.10;98.28;97997.22;5202239;28;20755;-66
2023/06/06 05:09:56;;;;;;;7.68;7.07;;;14.50;99.90;;;16.34;94.55;97997.28;5197533;28;20220;-66
2023/06/06 05:12:29;;;;;;;6.80;6.28;;;14.80;99.90;;;16.61;95.12;97994.78;5201037;28;20225;-66
2023/06/06 05:15:05;;;;;;;6.88;6.38;;;15.20;99.90;;;16.96;93.17;97995.16;5199707;28;20232;-66
2023/06/06 05:17:39;;;;;;;7.07;6.47;;;15.40;99.90;;;17.33;89.96;97996.41;5203839;28;20225;-65
2023/06/06 05:20:13;;;;;;;7.05;6.43;;;15.70;99.90;;;17.65;85.92;98005.19;5206897;28;20276;-66
2023/06/06 05:22:46;;;;;;;6.55;6.00;;;16.00;99.90;;;17.90;84.73;98001.69;5201832;28;20233;-65
2023/06/06 05:25:19;;;;;;;7.28;6.68;;;16.20;99.90;;;18.16;84.39;98001.59;5198419;28;20230;-64
2023/06/06 05:27:52;;;;;;;6.78;6.25;;;16.40;99.90;;;18.38;81.19;98006.56;5201378;28;20240;-66
2023/06/06 05:30:27;;;;;;;7.05;6.38;;;16.40;99.90;;;18.64;81.88;98003.81;5200416;28;20237;-66
2023/06/06 05:33:00;;;;;;;6.85;6.35;;;16.60;99.90;;;18.72;80.87;98001.44;5205005;28;20282;-66
2023/06/06 05:35:33;;;;;;;6.10;5.70;;;16.60;99.90;;;18.93;78.80;98004.63;5207220;28;20654;-66
2023/06/06 05:38:06;;;;;;;6.90;6.40;;;16.80;99.90;;;19.02;78.09;98011.78;5199218;28;20279;-64
2023/06/06 05:40:39;;;;;;;6.53;5.93;;;16.80;99.90;;;19.30;77.53;98008.19;5198913;28;20255;-65
2023/06/06 05:43:15;;;;;;;7.30;6.10;;;17.10;99.90;;;19.64;76.33;98004.69;5199854;28;20221;-65
2023/06/06 05:45:49;;;;;;;6.78;6.25;;;17.30;99.90;;;19.89;75.31;98010.50;5203685;28;20279;-65
2023/06/06 05:48:23;;;;;;;6.60;6.10;;;17.50;99.90;;;20.03;73.09;98006.47;5199098;28;20247;-66
2023/06/06 05:50:57;;;;;;;6.88;6.38;;;17.50;99.90;;;20.17;71.32;98012.84;5194998;28;20221;-67
2023/06/06 05:53:30;;;;;;;6.90;6.38;;;17.60;99.90;;;20.23;71.13;98005.19;5197946;28;20232;-66
2023/06/06 05:56:04;;;;;;;7.22;6.63;;;17.70;99.90;;;20.44;71.01;98016.88;5195718;28;20249;-66
2023/06/06 05:58:37;;;;;;;7.38;6.68;;;18.00;99.90;;;20.48;67.29;98018.66;5196299;28;20246;-65
2023/06/06 06:01:15;;;;;;;6.68;5.97;;;18.20;99.90;;;20.62;68.69;98017.25;5204404;28;20225;-64
2023/06/06 06:03:49;;;;;;;7.60;6.97;;;18.30;99.90;;;20.76;69.46;98008.88;5198604;28;20229;-66
2023/06/06 06:06:23;;;;;;;6.72;6.22;;;18.20;99.90;;;21.22;67.93;98009.69;5196463;28;20234;-67
2023/06/06 06:08:57;;;;;;;7.03;6.43;;;18.50;99.90;;;21.28;64.32;98012.41;5201660;28;20228;-66
2023/06/06 06:11:31;;;;;;;7.38;6.78;;;18.70;99.90;;;21.41;63.99;98011.81;5201969;28;20607;-67
2023/06/06 06:14:04;;;;;;;6.95;6.30;;;18.80;99.90;;;21.84;62.52;98022.88;5199919;28;20225;-67
2023/06/06 06:16:39;;;;;;;7.03;6.53;;;19.10;99.90;;;21.99;62.34;98023.09;5200047;28;20629;-66
2023/06/06 06:19:12;;;;;;;6.93;6.40;;;19.20;99.90;;;22.16;61.16;98019.88;5198664;28;20688;-66
2023/06/06 06:21:45;;;;;;;7.18;6.68;;;19.10;99.90;;;22.25;61.42;98025.22;5198156;28;20586;-66
2023/06/06 06:24:18;;;;;;;7.28;6.68;;;19.10;99.90;;;22.46;61.22;98028.13;5198293;28;20718;-65
2023/06/06 06:26:51;;;;;;;8.05;7.38;;;19.30;99.90;;;22.62;60.26;98028.31;5197357;28;20272;-66
2023/06/06 06:29:24;;;;;;;7.43;6.68;;;19.40;99.90;;;22.88;57.40;98016.44;5202172;28;20229;-66
2023/06/06 06:31:59;;;;;;;7.88;7.18;;;19.60;99.90;;;23.14;57.93;98018.47;5199230;28;20292;-67
2023/06/06 06:34:33;;;;;;;8.82;8.02;;;19.80;99.90;;;23.31;56.29;98016.91;5195624;28;20310;-66
2023/06/06 06:37:07;;;;;;;7.90;7.20;;;20.10;99.90;;;23.16;57.01;98019.38;5202449;28;20232;-65
2023/06/06 06:39:41;;;;;;;7.75;7.05;;;20.10;99.90;;;23.56;53.51;98024.94;5200017;28;20677;-64
2023/06/06 06:42:15;;;;;;;7.28;6.68;;;20.30;99.90;;;23.52;54.83;98023.16;5203883;28;20243;-67
2023/06/06 06:44:48;;;;;;;7.60;7.00;;;20.40;99.90;;;23.57;55.44;98026.69;5207737;28;20278;-67
2023/06/06 06:47:22;;;;;;;7.28;6.78;;;20.70;99.90;;;23.75;56.67;98024.28;5199369;28;20305;-65
2023/06/06 06:49:57;;;;;;;5.93;5.43;;;20.90;99.90;;;23.89;52.46;98028.69;5199930;28;20711;-67
2023/06/06 06:52:33;;;;;;;6.18;5.65;;;21.00;99.90;;;24.21;50.95;98035.00;5206070;28;20237;-67
2023/06/06 06:55:09;;;;;;;5.93;5.43;;;21.10;99.90;;;24.26;50.72;98028.03;5206654;28;20244;-66
2023/06/06 06:57:44;;;;;;;5.88;5.30;;;21.40;99.90;;;24.62;49.48;98036.97;5197539;28;20228;-65
2023/06/06 07:00:22;;;;;;;5.68;5.18;;;21.80;99.90;;;24.40;50.15;98035.09;5198662;28;20217;-65
2023/06/06 07:02:57;;;;;;;5.93;5.47;;;21.70;99.90;;;24.75;50.01;98032.66;5200525;28;20984;-66
2023/06/06 07:05:31;;;;;;;5.90;5.40;;;22.30;99.90;;;24.98;49.11;98027.53;5202999;28;20347;-66
2023/06/06 07:08:05;;;;;;;6.60;6.00;;;22.60;99.90;;;25.27;50.65;98039.81;5206090;28;20638;-66
2023/06/06 07:10:38;;;;;;;5.53;5.03;;;22.60;99.90;;;25.19;48.58;98039.78;5206654;28;20300;-65
2023/06/06 07:13:14;;;;;;;8.95;6.15;;;22.50;99.90;;;25.31;51.17;98041.56;5203631;28;20253;-67
2023/06/06 07:15:47;;;;;;;5.55;5.03;;;22.60;99.90;;;25.58;48.94;98038.97;5205250;28;20220;-66
2023/06/06 07:18:24;;;;;;;6.10;5.60;;;22.80;99.90;;;25.59;48.38;98032.84;5201697;28;20307;-66
2023/06/06 07:20:57;;;;;;;5.30;4.90;;;22.90;99.90;;;25.91;47.68;98031.13;5203385;28;20239;-66
2023/06/06 07:23:31;;;;;;;6.22;4.78;;;23.40;99.70;;;25.77;47.80;98036.34;5205415;28;20279;-66
2023/06/06 07:26:06;;;;;;;5.68;5.28;;;23.40;99.80;;;26.03;48.25;98037.19;5202177;28;20531;-66
2023/06/06 07:28:40;;;;;;;6.13;5.53;;;23.30;99.90;;;25.78;46.57;98038.06;5210122;28;20237;-65
2023/06/06 07:31:16;;;;;;;5.72;5.28;;;23.10;99.10;;;25.82;50.52;98029.34;5205713;28;20303;-66
2023/06/06 07:33:50;;;;;;;6.20;5.43;;;23.30;99.90;;;26.01;47.88;98038.06;5210988;28;20231;-66
2023/06/06 07:36:25;;;;;;;5.70;5.20;;;23.40;99.60;;;25.53;46.26;98035.47;5205051;28;20233;-66
2023/06/06 07:38:58;;;;;;;5.63;5.13;;;23.20;97.80;;;25.89;47.64;98030.25;5208562;28;20235;-66
2023/06/06 07:41:33;;;;;;;5.78;5.38;;;23.30;98.60;;;25.97;46.23;98029.34;5202414;28;20248;-67
2023/06/06 07:44:06;;;;;;;5.00;4.60;;;23.40;97.80;;;25.87;47.99;98027.63;5200152;28;20274;-66
2023/06/06 07:46:39;;;;;;;5.80;5.40;;;23.40;99.40;;;25.97;46.71;98029.34;5201368;28;20229;-66
2023/06/06 07:49:14;;;;;;;5.22;4.80;;;23.50;98.20;;;26.03;45.81;98026.72;5198226;28;20315;-66
2023/06/06 07:51:47;;;;;;;5.40;5.00;;;23.60;97.10;;;26.25;47.97;98018.81;5197570;28;20274;-66
2023/06/06 07:54:20;;;;;;;5.15;4.68;;;23.60;98.40;;;26.44;45.34;98020.50;5199603;28;20266;-66
2023/06/06 07:56:54;;;;;;;4.80;4.40;;;23.90;97.20;;;26.48;42.52;98022.22;5193588;28;20228;-65
2023/06/06 07:59:27;;;;;;;4.80;4.50;;;23.80;94.90;;;26.50;42.20;98024.91;5198682;28;20650;-64
2023/06/06 08:02:01;;;;;;;6.93;4.60;;;24.10;94.50;;;26.39;40.78;98019.66;5195123;28;20333;-65
2023/06/06 08:04:35;;;;;;;7.72;4.78;;;24.00;93.00;;;25.57;42.69;98024.13;5203617;28;20283;-65
2023/06/06 08:07:09;;;;;;;5.68;4.25;;;23.50;93.90;;;25.46;44.15;98019.75;5197131;28;20302;-65
2023/06/06 08:09:42;;;;;;;5.50;4.38;;;23.50;94.40;;;26.16;44.48;98024.09;5196657;28;20218;-65
2023/06/06 08:12:16;;;;;;;4.78;4.38;;;23.90;95.10;;;26.04;40.64;98024.97;5196879;28;20225;-66
2023/06/06 08:14:49;;;;;;;4.68;4.28;;;23.80;92.10;;;26.83;39.92;98012.50;5198276;28;20313;-64
2023/06/06 08:17:25;;;;;;;4.68;4.28;;;24.10;92.90;;;26.66;42.49;98016.06;5199753;28;20316;-65
2023/06/06 08:20:00;;;;;;;5.20;4.80;;;24.10;94.00;;;25.92;39.57;98015.38;5197791;28;20225;-65
2023/06/06 08:22:33;;;;;;;4.75;4.35;;;23.80;91.20;;;25.85;42.41;98024.13;5198488;28;20647;-65
2023/06/06 08:25:08;;;;;;;4.65;4.35;;;23.50;93.40;;;25.71;43.34;98016.25;5200057;28;20268;-65
2023/06/06 08:27:42;;;;;;;4.68;4.28;;;23.60;93.90;;;25.83;42.86;98018.03;5194597;28;20227;-66
2023/06/06 08:30:15;;;;;;;4.90;4.43;;;24.10;93.10;;;25.87;44.73;98025.03;5195927;28;20695;-65
2023/06/06 08:32:49;;;;;;;5.18;4.68;;;24.20;94.70;;;25.23;42.39;98019.72;5198327;28;20332;-64
2023/06/06 08:35:24;;;;;;;5.03;4.53;;;23.90;91.80;;;25.15;44.48;98015.38;5195408;28;20220;-65
2023/06/06 08:37:57;;;;;;;4.78;4.38;;;23.80;92.80;;;25.43;44.14;98014.50;5194403;28;20315;-64
2023/06/06 08:40:30;;;;;;;5.15;4.70;;;23.80;93.40;;;25.07;44.49;98009.22;5199096;28;20239;-64
2023/06/06 08:43:06;;;;;;;4.85;4.45;;;23.80;93.40;;;25.47;46.33;98014.53;5205348;28;20221;-65
2023/06/06 08:45:48;;;;;;;5.10;4.55;;;24.30;94.20;;;25.65;43.78;98016.25;5193910;28;20730;-65
2023/06/06 08:48:24;;;;;;;4.70;4.30;;;24.30;93.70;;;25.69;44.37;98017.13;5195731;28;20313;-64
2023/06/06 08:50:59;;;;;;;5.10;4.60;;;24.50;93.00;;;25.43;44.09;98009.28;5198490;28;20813;-64
2023/06/06 08:53:34;;;;;;;5.28;4.78;;;24.30;92.60;;;25.07;43.12;98009.22;5196343;28;20241;-65
2023/06/06 08:56:09;;;;;;;4.78;4.43;;;24.20;91.30;;;25.06;43.32;98014.44;5199443;28;20339;-65
2023/06/06 08:58:45;;;;;;;4.70;4.28;;;24.30;91.70;;;24.76;43.59;98010.00;5201417;28;20225;-65
2023/06/06 09:01:19;;;;;;;4.90;4.55;;;23.90;91.80;;;25.29;44.67;98011.88;5198303;28;20231;-64
2023/06/06 09:03:53;;;;;;;4.90;4.50;;;24.50;92.10;;;25.00;43.34;98015.28;5197368;28;20231;-65
2023/06/06 09:06:28;;;;;;;4.88;4.47;;;24.20;91.10;;;24.72;44.09;98010.00;5197558;28;21040;-65
2023/06/06 09:09:02;;;;;;;4.78;4.40;;;23.90;91.60;;;24.83;44.82;98006.53;5199180;28;20302;-64
2023/06/06 09:11:35;;;;;;;4.82;4.43;;;24.10;91.60;;;24.88;45.63;98012.66;5197808;28;20324;-65
2023/06/06 09:14:09;;;;;;;4.50;4.20;;;24.10;93.00;;;24.98;43.92;98013.53;5189258;28;20237;-65
2023/06/06 09:16:42;;;;;;;4.85;4.40;;;24.30;90.80;;;24.97;42.73;98006.56;5196394;28;20225;-65
2023/06/06 09:19:16;;;;;;;4.97;4.57;;;24.30;90.40;;;25.29;45.05;98006.66;5201020;28;20275;-65
2023/06/06 09:21:50;;;;;;;5.10;4.70;;;24.50;92.20;;;25.22;43.96;97999.69;5197878;28;20257;-64
2023/06/06 09:24:23;;;;;;;5.20;4.80;;;24.50;91.40;;;25.01;43.74;97998.75;5202621;28;20791;-65
2023/06/06 09:26:56;;;;;;;5.32;4.70;;;24.20;90.90;;;25.34;45.83;98008.41;5199222;28;20898;-65
2023/06/06 09:29:39;;;;;;;5.20;4.68;;;24.30;92.60;;;25.26;43.52;98006.66;5203617;28;20221;-65
2023/06/06 09:32:13;;;;;;;4.88;4.38;;;24.60;90.90;;;25.48;48.13;98005.78;5201263;28;20294;-65
2023/06/06 09:34:46;;;;;;;4.95;4.55;;;24.50;94.30;;;25.66;45.60;98009.28;5200917;28;20232;-65
2023/06/06 09:37:23;;;;;;;5.13;4.63;;;24.70;92.50;;;25.83;43.56;98007.53;5196337;28;20224;-65
2023/06/06 09:40:12;;;;;;;5.35;4.85;;;24.90;91.40;;;25.63;42.80;98003.16;5198826;28;20217;-65
2023/06/06 09:42:47;;;;;;;5.30;4.90;;;24.70;90.50;;;25.43;43.73;98004.91;5196400;28;20225;-64
2023/06/06 09:45:21;;;;;;;5.70;5.05;;;24.50;91.10;;;25.44;44.60;98000.53;5199001;28;20252;-64
2023/06/06 09:47:54;;;;;;;5.82;4.90;;;24.50;91.70;;;25.24;43.17;98000.53;5194177;28;20311;-65
2023/06/06 09:50:27;;;;;;;6.88;4.88;;;24.50;90.60;;;25.22;45.72;97997.06;5202164;28;20230;-66
2023/06/06 09:53:02;;;;;;;5.60;5.15;;;24.40;92.40;;;25.24;44.50;98001.44;5198217;28;20240;-64
2023/06/06 09:59:48;;;;;;;5.68;5.18;;;24.50;91.90;;;25.19;44.20;97984.84;5198900;28;20723;-65
2023/06/06 10:02:23;;;;;;;5.47;5.07;;;24.40;91.40;;;25.15;43.01;97994.44;5192333;28;20248;-65
2023/06/06 10:04:58;;;;;;;5.93;5.40;;;24.30;90.40;;;24.86;44.10;97981.25;5202309;28;20245;-67
2023/06/06 10:07:32;;;;;;;5.10;4.70;;;24.10;90.70;;;25.02;43.60;97976.94;5194810;28;20256;-66
2023/06/06 10:10:10;;;;;;;5.13;4.72;;;24.10;90.40;;;25.07;42.66;97985.69;5200143;28;20781;-66
2023/06/06 10:12:45;;;;;;;5.22;4.82;;;24.30;89.80;;;24.94;44.25;97979.53;5196308;28;20735;-66
2023/06/06 10:15:18;;;;;;;5.53;5.03;;;24.20;90.70;;;24.81;41.95;97971.66;5187384;28;20231;-65
2023/06/06 10:17:53;;;;;;;5.25;4.78;;;24.30;87.50;;;24.81;41.66;97976.88;5195217;28;20694;-65
2023/06/06 10:20:27;;;;;;;5.47;5.00;;;24.20;87.60;;;24.66;44.21;97975.09;5195018;28;20255;-66
2023/06/06 10:23:02;;;;;;;5.43;4.93;;;24.00;90.40;;;24.68;41.36;97981.22;5191172;28;20233;-65
2023/06/06 10:25:38;;;;;;;5.35;4.93;;;24.30;86.90;;;24.52;42.17;97969.84;5198186;28;20216;-66
2023/06/06 10:28:17;;;;;;;5.22;4.82;;;23.80;87.40;;;24.76;44.38;97970.78;5201691;28;20233;-66
2023/06/06 10:30:59;;;;;;;5.00;4.53;;;24.00;90.50;;;24.77;42.48;97962.06;5192937;28;21114;-68
2023/06/06 10:33:42;;;;;;;5.20;4.80;;;24.00;88.60;;;24.82;44.14;97962.97;5194681;28;20232;-66
2023/06/06 10:36:19;;;;;;;4.97;4.57;;;24.00;90.40;;;25.01;43.33;97961.22;5198662;28;20221;-65
2023/06/06 10:39:20;;;;;;;5.10;4.65;;;24.20;89.10;;;25.06;42.80;97962.97;5199953;28;20220;-66
2023/06/06 10:41:57;;;;;;;5.15;4.75;;;24.30;88.50;;;25.08;39.91;97961.25;5193287;28;20224;-66
2023/06/06 10:44:36;;;;;;;4.43;4.10;;;24.20;84.50;;;24.90;40.25;97956.88;5196069;28;20233;-66
2023/06/06 10:47:32;;;;;;;5.03;4.63;;;24.00;85.90;;;25.00;44.17;97960.38;5200474;28;20609;-67
2023/06/06 10:50:25;;;;;;;4.68;4.28;;;24.10;91.10;;;25.11;43.06;97961.25;5197101;28;20774;-66